createdAt,value
2022-10-10T00:01:53.711Z,6.76
2022-10-10T00:05:21.998Z,6.81
2022-10-10T00:08:49.500Z,6.85
2022-10-10T00:12:21.499Z,6.88
2022-10-10T00:15:51.537Z,6.91
2022-10-10T00:19:20.600Z,6.92
2022-10-10T00:22:48.313Z,6.90
2022-10-10T00:26:19.218Z,6.88
2022-10-10T00:29:45.952Z,6.83
2022-10-10T00:33:14.785Z,6.79
2022-10-10T00:36:43.092Z,6.73
2022-10-10T00:40:13.390Z,6.67
2022-10-10T00:43:40.717Z,6.61
2022-10-10T00:47:07.715Z,6.56
2022-10-10T00:50:37.661Z,6.51
2022-10-10T00:54:07.590Z,6.46
2022-10-10T00:57:34.842Z,6.43
2022-10-10T01:01:01.605Z,6.43
2022-10-10T01:04:43.096Z,6.42
2022-10-10T01:08:11.262Z,6.43
2022-10-10T01:11:53.505Z,6.42
2022-10-10T01:15:29.221Z,6.46
2022-10-10T01:19:06.727Z,6.49
2022-10-10T01:22:45.252Z,6.54
2022-10-10T01:26:36.525Z,6.58
2022-10-10T01:30:07.015Z,6.57
2022-10-10T01:33:40.215Z,6.56
2022-10-10T01:37:16.371Z,6.55
2022-10-10T01:40:52.640Z,6.53
2022-10-10T01:44:20.714Z,6.50
2022-10-10T01:47:47.610Z,6.46
2022-10-10T01:51:30.388Z,6.42
2022-10-10T01:55:09.587Z,6.39
2022-10-10T01:58:54.869Z,6.36
2022-10-10T02:02:32.674Z,6.32
2022-10-10T02:06:05.718Z,6.30
2022-10-10T02:09:40.036Z,6.29
2022-10-10T02:13:11.651Z,6.29
2022-10-10T02:16:43.774Z,6.33
2022-10-10T02:20:15.082Z,6.38
2022-10-10T02:23:44.900Z,6.42
2022-10-10T02:27:23.011Z,6.49
2022-10-10T02:30:53.933Z,6.55
2022-10-10T02:34:23.410Z,6.57
2022-10-10T02:37:53.471Z,6.60
2022-10-10T02:41:22.389Z,6.63
2022-10-10T02:44:50.163Z,6.61
2022-10-10T02:48:17.169Z,6.61
2022-10-10T02:51:44.142Z,6.58
2022-10-10T02:55:12.520Z,6.54
2022-10-10T02:58:38.941Z,6.47
2022-10-10T03:02:06.861Z,6.43
2022-10-10T03:05:34.015Z,6.39
2022-10-10T03:09:01.039Z,6.35
2022-10-10T03:12:27.583Z,6.33
2022-10-10T03:15:54.785Z,6.31
2022-10-10T03:19:21.710Z,6.30
2022-10-10T03:22:49.563Z,6.32
2022-10-10T03:26:16.984Z,6.36
2022-10-10T03:29:43.879Z,6.39
2022-10-10T03:33:11.554Z,6.43
2022-10-10T03:36:38.457Z,6.48
2022-10-10T03:40:05.498Z,6.47
2022-10-10T03:43:31.838Z,6.48
2022-10-10T03:46:58.958Z,6.48
2022-10-10T03:50:25.600Z,6.45
2022-10-10T03:53:52.709Z,6.41
2022-10-10T03:57:19.332Z,6.36
2022-10-10T04:00:46.094Z,6.32
2022-10-10T04:04:12.631Z,6.29
2022-10-10T04:07:39.085Z,6.24
2022-10-10T04:11:05.925Z,6.18
2022-10-10T04:14:32.783Z,6.14
2022-10-10T04:17:59.991Z,6.12
2022-10-10T04:21:28.787Z,6.10
2022-10-10T04:24:56.337Z,6.10
2022-10-10T04:28:23.036Z,6.11
2022-10-10T04:31:49.656Z,6.13
2022-10-10T04:35:16.816Z,6.16
2022-10-10T04:38:44.096Z,6.20
2022-10-10T04:42:10.903Z,6.24
2022-10-10T04:45:37.914Z,6.28
2022-10-10T04:49:05.309Z,6.29
2022-10-10T04:52:32.051Z,6.30
2022-10-10T04:55:59.108Z,6.29
2022-10-10T04:59:26.416Z,6.28
2022-10-10T05:02:55.468Z,6.24
2022-10-10T05:06:22.240Z,6.17
2022-10-10T05:09:52.004Z,6.09
2022-10-10T05:13:19.396Z,6.05
2022-10-10T05:16:45.959Z,6.01
2022-10-10T05:20:17.630Z,5.97
2022-10-10T05:23:44.883Z,5.91
2022-10-10T05:27:11.973Z,5.92
2022-10-10T05:30:38.511Z,5.92
2022-10-10T05:34:05.163Z,5.92
2022-10-10T05:37:32.782Z,5.96
2022-10-10T05:40:59.359Z,6.03
2022-10-10T05:44:26.293Z,6.09
2022-10-10T05:47:56.082Z,6.17
2022-10-10T05:51:24.788Z,6.25
2022-10-10T05:54:52.394Z,6.29
2022-10-10T05:58:21.079Z,6.32
2022-10-10T06:01:48.975Z,6.38
2022-10-10T06:05:16.640Z,6.41
2022-10-10T06:08:43.332Z,6.42
2022-10-10T06:12:10.576Z,6.40
2022-10-10T06:15:37.931Z,6.41
2022-10-10T06:19:05.013Z,6.41
2022-10-10T06:22:32.689Z,6.39
2022-10-10T06:26:00.258Z,6.40
2022-10-10T06:29:27.336Z,6.41
2022-10-10T06:32:56.798Z,6.44
2022-10-10T06:36:23.808Z,6.49
2022-10-10T06:39:50.477Z,6.53
2022-10-10T06:43:19.909Z,6.57
2022-10-10T06:46:47.909Z,6.64
2022-10-10T06:50:14.632Z,6.74
2022-10-10T06:53:44.380Z,6.85
2022-10-10T06:57:11.731Z,6.97
2022-10-10T07:00:38.409Z,7.07
2022-10-10T07:04:06.330Z,7.17
2022-10-10T07:07:33.306Z,7.29
2022-10-10T07:10:59.945Z,7.37
2022-10-10T07:14:26.334Z,7.42
2022-10-10T07:18:00.464Z,7.45
2022-10-10T07:21:27.991Z,7.49
2022-10-10T07:24:55.080Z,7.53
2022-10-10T07:28:22.173Z,7.56
2022-10-10T07:31:49.212Z,7.57
2022-10-10T07:35:15.738Z,7.61
2022-10-10T07:38:42.742Z,7.66
2022-10-10T07:42:10.702Z,7.72
2022-10-10T07:45:39.862Z,7.78
2022-10-10T07:49:06.937Z,7.88
2022-10-10T07:52:34.236Z,7.98
2022-10-10T07:56:00.788Z,8.10
2022-10-10T07:59:28.117Z,8.22
2022-10-10T08:02:55.246Z,8.34
2022-10-10T08:06:22.673Z,8.47
2022-10-10T08:09:49.341Z,8.62
2022-10-10T08:13:15.992Z,8.74
2022-10-10T08:16:42.886Z,8.87
2022-10-10T08:20:10.619Z,9.00
2022-10-10T08:23:38.551Z,9.13
2022-10-10T08:27:08.513Z,9.24
2022-10-10T08:30:35.625Z,9.34
2022-10-10T08:34:05.080Z,9.42
2022-10-10T08:37:37.131Z,9.51
2022-10-10T08:41:09.014Z,9.60
2022-10-10T08:44:43.890Z,9.69
2022-10-10T08:48:16.473Z,9.81
2022-10-10T08:51:51.686Z,9.94
2022-10-10T08:55:24.609Z,10.10
2022-10-10T08:59:01.491Z,10.29
2022-10-10T09:02:56.271Z,10.47
2022-10-10T09:06:39.961Z,10.68
2022-10-10T09:10:20.711Z,10.88
2022-10-10T09:13:54.634Z,11.06
2022-10-10T09:17:39.643Z,11.23
2022-10-10T09:21:16.658Z,11.39
2022-10-10T09:24:50.158Z,11.55
2022-10-10T09:28:21.882Z,11.70
2022-10-10T09:31:53.956Z,11.85
2022-10-10T09:35:24.693Z,12.01
2022-10-10T09:38:55.535Z,12.17
2022-10-10T09:42:30.147Z,12.32
2022-10-10T09:45:58.932Z,12.42
2022-10-10T09:49:27.237Z,12.55
2022-10-10T09:52:55.419Z,12.67
2022-10-10T09:56:25.025Z,12.80
2022-10-10T09:59:52.133Z,12.92
2022-10-10T10:03:23.731Z,13.06
2022-10-10T10:06:52.666Z,13.23
2022-10-10T10:10:24.666Z,13.38
2022-10-10T10:13:58.128Z,13.52
2022-10-10T10:17:26.769Z,13.64
2022-10-10T10:20:55.303Z,13.76
2022-10-10T10:24:31.160Z,13.89
2022-10-10T10:28:18.350Z,14.05
2022-10-10T10:31:59.827Z,14.19
2022-10-10T10:35:33.033Z,14.35
2022-10-10T10:39:08.348Z,14.52
2022-10-10T10:42:56.334Z,14.67
2022-10-10T10:46:35.714Z,14.84
2022-10-10T10:50:28.842Z,15.00
2022-10-10T10:54:03.584Z,15.18
2022-10-10T10:58:00.060Z,15.35
2022-10-10T11:01:55.241Z,15.52
2022-10-10T11:05:44.873Z,15.62
2022-10-10T11:09:44.936Z,15.74
2022-10-10T11:13:15.076Z,15.87
2022-10-10T11:16:49.098Z,15.95
2022-10-10T11:20:24.625Z,16.07
2022-10-10T11:23:58.957Z,16.19
2022-10-10T11:27:30.192Z,16.34
2022-10-10T11:31:03.111Z,16.50
2022-10-10T11:34:35.543Z,16.64
2022-10-10T11:38:12.958Z,16.83
2022-10-10T11:41:44.324Z,17.01
2022-10-10T11:45:18.555Z,17.10
2022-10-10T11:48:54.437Z,17.23
2022-10-10T11:52:33.968Z,17.39
2022-10-10T11:56:09.830Z,17.56
2022-10-10T11:59:43.876Z,17.69
2022-10-10T12:03:11.788Z,17.82
2022-10-10T12:06:43.580Z,17.97
2022-10-10T12:10:17.427Z,18.12
2022-10-10T12:13:44.797Z,18.25
2022-10-10T12:17:22.398Z,18.37
2022-10-10T12:20:49.187Z,18.59
2022-10-10T12:24:16.963Z,18.76
2022-10-10T12:27:49.948Z,18.94
2022-10-10T12:31:33.850Z,19.08
2022-10-10T12:35:05.106Z,19.29
2022-10-10T12:38:31.839Z,19.47
2022-10-10T12:41:58.654Z,19.56
2022-10-10T12:45:58.721Z,19.61
2022-10-10T12:49:52.929Z,19.69
2022-10-10T12:53:23.431Z,19.85
2022-10-10T12:56:54.499Z,19.99
2022-10-10T13:00:24.484Z,19.99
2022-10-10T13:03:54.447Z,19.91
2022-10-10T13:07:26.417Z,19.91
2022-10-10T13:11:08.321Z,19.87
2022-10-10T13:14:43.754Z,19.88
2022-10-10T13:18:13.666Z,19.97
2022-10-10T13:21:41.014Z,20.05
2022-10-10T13:25:13.087Z,20.14
2022-10-10T13:28:40.089Z,20.21
2022-10-10T13:32:23.411Z,20.31
2022-10-10T13:36:10.350Z,20.41
2022-10-10T13:39:46.357Z,20.39
2022-10-10T13:43:21.041Z,20.16
2022-10-10T13:46:52.840Z,19.87
2022-10-10T13:50:30.133Z,19.58
2022-10-10T13:53:57.633Z,19.31
2022-10-10T13:57:29.114Z,19.06
2022-10-10T14:01:01.350Z,18.82
2022-10-10T14:04:34.495Z,18.60
2022-10-10T14:08:03.127Z,18.35
2022-10-10T14:11:35.194Z,18.16
2022-10-10T14:15:06.070Z,18.00
2022-10-10T14:18:37.499Z,17.89
2022-10-10T14:22:04.820Z,17.77
2022-10-10T14:25:35.701Z,17.65
2022-10-10T14:29:04.198Z,17.53
2022-10-10T14:32:33.577Z,17.45
2022-10-10T14:36:05.939Z,17.37
2022-10-10T14:39:33.344Z,17.25
2022-10-10T14:43:00.658Z,17.16
2022-10-10T14:46:27.497Z,17.08
2022-10-10T14:49:57.589Z,17.01
2022-10-10T14:53:25.282Z,16.95
2022-10-10T14:57:08.996Z,16.87
2022-10-10T15:00:37.243Z,16.80
2022-10-10T15:04:06.355Z,16.74
2022-10-10T15:07:34.189Z,16.69
2022-10-10T15:11:01.235Z,16.61
2022-10-10T15:14:28.052Z,16.54
2022-10-10T15:17:55.046Z,16.48
2022-10-10T15:21:23.308Z,16.42
2022-10-10T15:24:50.344Z,16.33
2022-10-10T15:28:17.594Z,16.22
2022-10-10T15:31:46.617Z,16.13
2022-10-10T15:35:18.277Z,16.06
2022-10-10T15:38:48.434Z,15.99
2022-10-10T15:42:22.393Z,15.90
2022-10-10T15:45:55.811Z,15.78
2022-10-10T15:49:39.711Z,15.66
2022-10-10T15:53:07.030Z,15.57
2022-10-10T15:56:34.298Z,15.48
2022-10-10T16:00:04.470Z,15.39
2022-10-10T16:03:39.532Z,15.29
2022-10-10T16:10:54.525Z,15.10
2022-10-10T16:14:22.426Z,15.01
2022-10-10T16:17:49.377Z,14.93
2022-10-10T16:21:21.283Z,14.88
2022-10-10T16:25:10.101Z,14.82
2022-10-10T16:28:36.736Z,14.77
2022-10-10T16:32:04.330Z,14.76
2022-10-10T16:35:32.353Z,14.75
2022-10-10T16:39:02.828Z,14.71
2022-10-10T16:42:33.583Z,14.69
2022-10-10T16:46:06.367Z,14.63
2022-10-10T16:49:34.060Z,14.60
2022-10-10T16:53:01.432Z,14.56
2022-10-10T16:56:30.627Z,14.50
2022-10-10T16:59:59.909Z,14.42
2022-10-10T17:03:28.005Z,14.35
2022-10-10T17:06:55.032Z,14.29
2022-10-10T17:10:26.092Z,14.24
2022-10-10T17:13:57.849Z,14.19
2022-10-10T17:17:26.068Z,14.15
2022-10-10T17:20:53.875Z,14.10
2022-10-10T17:24:22.036Z,14.08
2022-10-10T17:27:55.597Z,14.03
2022-10-10T17:31:22.883Z,14.00
2022-10-10T17:34:51.076Z,13.96
2022-10-10T17:38:38.369Z,13.93
2022-10-10T17:42:07.754Z,13.89
2022-10-10T17:45:38.529Z,13.87
2022-10-10T17:49:07.426Z,13.84
2022-10-10T17:52:41.659Z,13.82
2022-10-10T17:56:18.055Z,13.78
2022-10-10T17:59:45.183Z,13.75
2022-10-10T18:03:13.801Z,13.73
2022-10-10T18:06:41.506Z,13.72
2022-10-10T18:10:10.003Z,13.69
2022-10-10T18:13:37.883Z,13.66
2022-10-10T18:17:17.895Z,13.65
2022-10-10T18:20:45.599Z,13.63
2022-10-10T18:24:18.203Z,13.61
2022-10-10T18:27:45.548Z,13.59
2022-10-10T18:31:15.945Z,13.58
2022-10-10T18:34:46.466Z,13.57
2022-10-10T18:38:13.392Z,13.55
2022-10-10T18:41:40.888Z,13.51
2022-10-10T18:45:09.955Z,13.48
2022-10-10T18:48:39.089Z,13.45
2022-10-10T18:52:13.266Z,13.43
2022-10-10T18:55:42.101Z,13.39
2022-10-10T18:59:17.838Z,13.35
2022-10-10T19:02:50.763Z,13.31
2022-10-10T19:06:22.911Z,13.26
2022-10-10T19:09:53.649Z,13.20
2022-10-10T19:13:24.976Z,13.14
2022-10-10T19:16:52.740Z,13.11
2022-10-10T19:20:28.456Z,13.07
2022-10-10T19:23:57.766Z,13.02
2022-10-10T19:27:25.984Z,12.98
2022-10-10T19:30:55.566Z,12.94
2022-10-10T19:34:24.218Z,12.92
2022-10-10T19:37:52.859Z,12.89
2022-10-10T19:41:25.130Z,12.85
2022-10-10T19:44:53.293Z,12.81
2022-10-10T19:48:24.771Z,12.79
2022-10-10T19:51:55.389Z,12.76
2022-10-10T19:55:23.816Z,12.73
2022-10-10T19:58:58.572Z,12.69
2022-10-10T20:02:28.269Z,12.67
2022-10-10T20:06:01.741Z,12.66
2022-10-10T20:09:30.440Z,12.64
2022-10-10T20:12:58.434Z,12.63
2022-10-10T20:16:28.897Z,12.61
2022-10-10T20:19:56.460Z,12.59
2022-10-10T20:23:39.223Z,12.57
2022-10-10T20:27:05.916Z,12.56
2022-10-10T20:30:47.467Z,12.52
2022-10-10T20:34:14.920Z,12.52
2022-10-10T20:37:45.485Z,12.51
2022-10-10T20:41:23.278Z,12.52
2022-10-10T20:44:55.771Z,12.54
2022-10-10T20:48:24.359Z,12.55
2022-10-10T20:51:54.369Z,12.58
2022-10-10T20:55:22.048Z,12.62
2022-10-10T20:58:53.761Z,12.66
2022-10-10T21:02:21.058Z,12.69
2022-10-10T21:06:02.607Z,12.74
2022-10-10T21:09:37.722Z,12.76
2022-10-10T21:13:05.708Z,12.76
2022-10-10T21:16:37.490Z,12.74
2022-10-10T21:20:05.949Z,12.70
2022-10-10T21:23:37.759Z,12.65
2022-10-10T21:27:08.902Z,12.59
2022-10-10T21:30:39.291Z,12.54
2022-10-10T21:34:11.341Z,12.49
2022-10-10T21:37:39.132Z,12.44
2022-10-10T21:41:11.004Z,12.39
2022-10-10T21:44:37.933Z,12.33
2022-10-10T21:48:05.441Z,12.28
2022-10-10T21:51:48.559Z,12.24
2022-10-10T21:55:14.188Z,12.20
2022-10-10T21:58:42.919Z,12.13
2022-10-10T22:02:11.370Z,12.10
2022-10-10T22:05:42.624Z,12.05
2022-10-10T22:09:12.688Z,12.02
2022-10-10T22:12:40.070Z,12.00
2022-10-10T22:16:07.940Z,11.97
2022-10-10T22:19:35.633Z,11.97
2022-10-10T22:23:02.340Z,11.97
2022-10-10T22:26:29.220Z,12.01
2022-10-10T22:29:56.959Z,12.00
2022-10-10T22:33:26.522Z,11.97
2022-10-10T22:36:56.843Z,11.93
2022-10-10T22:40:23.995Z,11.87
2022-10-10T22:43:51.263Z,11.80
2022-10-10T22:47:18.236Z,11.74
2022-10-10T22:50:44.812Z,11.66
2022-10-10T22:54:12.300Z,11.58
2022-10-10T22:57:43.145Z,11.50
2022-10-10T23:01:12.705Z,11.44
2022-10-10T23:04:40.254Z,11.36
2022-10-10T23:08:07.199Z,11.28
2022-10-10T23:11:34.509Z,11.22
2022-10-10T23:15:03.008Z,11.15
2022-10-10T23:18:30.862Z,11.10
2022-10-10T23:21:58.775Z,11.05
2022-10-10T23:25:25.557Z,11.04
2022-10-10T23:28:54.501Z,11.04
2022-10-10T23:32:23.179Z,11.04
2022-10-10T23:36:00.141Z,11.06
2022-10-10T23:39:26.742Z,11.09
2022-10-10T23:42:55.608Z,11.10
2022-10-10T23:46:22.968Z,11.10
2022-10-10T23:49:49.864Z,11.07
2022-10-10T23:53:16.513Z,11.03
2022-10-10T23:56:42.801Z,10.97
